Terminal Aerodrome Forecast
Issued by NWS Melbourne, FL

Home | Current Version | Previous Version | Text Only | Print | Product List | Glossary On
Versions: 1 2 3 4 5 6 7 8 9 10 11 12 13 14 15 16 17 18 19 20 21 22 23 24 25
000
FTUS42 KMLB 182300
TAFMCO
TAF
KMCO 182321Z 1900/1924 11008KT P6SM VCTS SCT030CB SCT070 BKN250
     FM190100 VRB02KT P6SM FEW030 SCT250
     FM191400 05007KT P6SM SCT025 BKN090 BKN250
     FM191900 06008KT P6SM VCSH SCT040 BKN060 OVC100=

USA.gov is the U.S. government's official web portal to all federal, state and local government web resources and services.